KAOO/AOO METAR and TAF weather

Enter ICAO airport designator
Station Type Date Time Source
KAOO METAR 2022/05/26 04:53 UTC NOAA

KAOO 260453Z AUTO 17014KT 10SM OVC029 16/08 A3025 RMK AO2 SLP239 T01610083 402110100


Station Type Date Time Source
KAOO Decoded METAR 2022/05/26 04:53 UTC NOAA

ALTOONA-BLAIR COUNTY AIRPORT, PA, United States (KAOO) 40-18N 78-19W 455M
May 26, 2022 - 12:53 AM EDT / 2022.05.26 0453 UTC
Wind: from the S (170 degrees) at 16 MPH (14 KT):0
Visibility: 10 mile(s):0
Sky conditions: overcast
Temperature: 61.0 F (16.1 C)
Dew Point: 46.9 F (8.3 C)
Relative Humidity: 59%
Pressure (altimeter): 30.25 in. Hg (1024 hPa)
ob: KAOO 260453Z AUTO 17014KT 10SM OVC029 16/08 A3025 RMK AO2 SLP239 T01610083 402110100
cycle: 5

Station Type Date Time Source
KAOO TAF 2022/05/26 06:22 UTC NOAA

TAF KAOO 260520Z 2606/2706 17010KT P6SM OVC025
FM261200 17005KT P6SM OVC009
FM261500 18008KT P6SM OVC015

Example: see airport list